Time;durP1;ratioP1;P1;durP2;ratioP2;P2;SDS_P1;SDS_P2;PMS_P1;PMS_P2;Temp;Humidity;BMP_temperature;BMP_pressure;BME280_temperature;BME280_humidity;BME280_pressure;Samples;Min_cycle;Max_cycle;Signal;HPM_P1;HPM_P2
2023/07/23 00:02:04;;;;;;;8.77;6.45;;;;;;;18.50;68.29;100800.00;5052318;28;20106;-71
2023/07/23 00:04:29;;;;;;;8.15;6.30;;;;;;;18.45;69.23;100788.84;5067211;28;20392;-71
2023/07/23 00:06:54;;;;;;;10.35;6.40;;;;;;;18.46;69.36;100787.69;5070231;28;20051;-71
2023/07/23 00:09:20;;;;;;;7.32;5.88;;;;;;;18.44;68.74;100785.22;5067986;28;20071;-71
2023/07/23 00:11:45;;;;;;;8.07;5.60;;;;;;;18.54;68.36;100782.19;5051525;28;20044;-71
2023/07/23 00:14:11;;;;;;;8.60;5.88;;;;;;;18.49;68.83;100784.28;5051622;28;20567;-71
2023/07/23 00:16:36;;;;;;;7.63;6.20;;;;;;;18.52;68.60;100772.44;5067561;28;20083;-71
2023/07/23 00:19:01;;;;;;;9.25;5.70;;;;;;;18.52;68.59;100772.44;5069257;28;20032;-71
2023/07/23 00:21:28;;;;;;;7.82;5.43;;;;;;;18.45;68.47;100772.81;5059522;28;20140;-71
2023/07/23 00:23:53;;;;;;;8.40;5.85;;;;;;;18.46;68.08;100771.66;5050670;28;20108;-71
2023/07/23 00:26:19;;;;;;;8.82;5.90;;;;;;;18.45;68.30;100755.94;5050334;28;20394;-71
2023/07/23 00:28:44;;;;;;;8.13;5.65;;;;;;;18.44;68.31;100759.09;5060701;28;20078;-71
2023/07/23 00:31:09;;;;;;;7.63;5.30;;;;;;;18.48;67.99;100748.88;5069591;28;20079;-71
2023/07/23 00:33:34;;;;;;;9.25;6.07;;;;;;;18.41;68.68;100749.28;5069878;28;20032;-71
2023/07/23 00:36:00;;;;;;;7.30;5.55;;;;;;;18.40;68.51;100737.22;5071220;28;20388;-71
2023/07/23 00:38:25;;;;;;;7.72;5.90;;;;;;;18.42;68.27;100739.69;5059083;28;20036;-71
2023/07/23 00:40:52;;;;;;;8.38;5.72;;;;;;;18.42;68.07;100736.88;5051001;28;20097;-71
2023/07/23 00:43:17;;;;;;;8.38;5.40;;;;;;;18.34;68.11;100727.19;5049790;28;20120;-71
2023/07/23 00:45:43;;;;;;;7.28;5.78;;;;;;;18.34;68.87;100720.75;5067163;28;20527;-71
2023/07/23 00:48:08;;;;;;;7.68;5.60;;;;;;;18.36;68.15;100719.31;5070147;28;20044;-71
2023/07/23 00:50:34;;;;;;;10.38;5.55;;;;;;;18.41;67.59;100718.38;5057535;28;20037;-71
2023/07/23 00:53:00;;;;;;;9.77;5.32;;;;;;;18.30;67.50;100714.91;5054218;28;20029;-71
2023/07/23 00:55:26;;;;;;;8.25;5.50;;;;;;;18.28;67.38;100717.19;5055129;28;20400;-70
2023/07/23 00:57:52;;;;;;;7.20;4.80;;;;;;;18.33;67.23;100708.66;5054786;28;20033;-71
2023/07/23 01:00:17;;;;;;;6.82;5.10;;;;;;;18.34;67.22;100699.09;5054670;28;20055;-71
2023/07/23 01:02:42;;;;;;;6.30;4.63;;;;;;;18.35;67.07;100695.16;5062186;28;20043;-71
2023/07/23 01:05:08;;;;;;;9.30;5.07;;;;;;;18.38;67.31;100688.06;5075190;28;20036;-71
2023/07/23 01:07:34;;;;;;;8.27;4.75;;;;;;;18.33;67.37;100689.00;5066825;28;20085;-71
2023/07/23 01:10:03;;;;;;;7.32;4.57;;;;;;;18.31;67.29;100682.88;5069734;28;20044;-71
2023/07/23 01:12:29;;;;;;;6.10;4.68;;;;;;;18.34;67.55;100675.78;5054489;28;20056;-71
2023/07/23 01:14:54;;;;;;;8.35;4.97;;;;;;;18.33;67.45;100676.94;5053563;28;20511;-71
2023/07/23 01:17:20;;;;;;;8.00;4.97;;;;;;;18.27;67.31;100673.38;5063855;28;20133;-71
2023/07/23 01:19:46;;;;;;;6.30;5.07;;;;;;;18.22;67.88;100670.66;5063768;28;20615;-72
2023/07/23 01:22:11;;;;;;;6.43;4.95;;;;;;;18.28;67.11;100666.63;5073963;28;20108;-71
2023/07/23 01:24:36;;;;;;;7.68;5.07;;;;;;;18.27;66.95;100659.31;5073252;28;20036;-71
2023/07/23 01:27:02;;;;;;;6.57;5.35;;;;;;;18.27;67.26;100656.50;5066770;28;20036;-71
2023/07/23 01:29:28;;;;;;;7.10;4.85;;;;;;;18.26;67.17;100649.22;5053546;28;20036;-71
2023/07/23 01:31:54;;;;;;;9.63;5.28;;;;;;;18.24;67.47;100643.09;5057260;28;20107;-71
2023/07/23 01:34:19;;;;;;;7.95;5.28;;;;;;;18.24;67.16;100647.91;5073211;28;20028;-71
2023/07/23 01:36:46;;;;;;;8.93;5.53;;;;;;;18.18;67.08;100638.72;5064291;28;20025;-71
2023/07/23 01:39:12;;;;;;;6.78;5.38;;;;;;;18.20;67.25;100638.41;5054248;28;20075;-71
2023/07/23 01:41:38;;;;;;;8.43;5.45;;;;;;;18.19;66.79;100628.31;5071155;28;20028;-71
2023/07/23 01:44:03;;;;;;;8.20;4.82;;;;;;;18.20;67.22;100636.44;5073960;28;20031;-71
2023/07/23 01:46:29;;;;;;;8.70;5.15;;;;;;;18.20;67.62;100624.38;5068427;28;20028;-71
2023/07/23 01:48:54;;;;;;;8.35;5.40;;;;;;;18.14;66.78;100623.63;5074647;28;20033;-71
2023/07/23 01:51:19;;;;;;;8.18;5.38;;;;;;;18.21;66.93;100618.44;5073379;28;20377;-71
2023/07/23 01:53:44;;;;;;;6.60;5.57;;;;;;;18.14;66.36;100618.00;5065816;28;20033;-71
2023/07/23 01:56:10;;;;;;;6.97;5.15;;;;;;;18.10;65.28;100612.16;5072952;28;20033;-72
2023/07/23 01:58:35;;;;;;;7.78;5.82;;;;;;;18.06;65.63;100607.50;5055494;28;20039;-71
2023/07/23 02:01:00;;;;;;;8.48;5.07;;;;;;;18.03;65.26;100603.31;5060449;28;20029;-72
2023/07/23 02:03:26;;;;;;;7.82;5.20;;;;;;;18.01;66.72;100599.16;5063314;28;20028;-72
2023/07/23 02:05:56;;;;;;;7.57;5.57;;;;;;;18.01;65.66;100599.16;5073830;28;20376;-71
2023/07/23 02:08:22;;;;;;;8.38;5.60;;;;;;;18.00;65.80;100594.66;5070188;28;20029;-71
2023/07/23 02:10:47;;;;;;;10.40;5.25;;;;;;;18.02;65.34;100589.59;5067769;28;20012;-71
2023/07/23 02:13:13;;;;;;;6.32;5.35;;;;;;;18.00;65.73;100586.25;5060419;28;20366;-71
2023/07/23 02:15:38;;;;;;;9.60;5.13;;;;;;;18.00;64.87;100580.63;5071592;28;20035;-70
2023/07/23 02:18:03;;;;;;;8.05;5.80;;;;;;;18.04;64.94;100584.50;5072712;28;20032;-71
2023/07/23 02:20:29;;;;;;;8.77;5.13;;;;;;;18.06;64.56;100573.78;5072120;28;20034;-71
2023/07/23 02:22:54;;;;;;;6.75;5.80;;;;;;;18.02;65.12;100569.94;5064047;28;20044;-70
2023/07/23 02:25:19;;;;;;;9.23;5.45;;;;;;;18.04;64.38;100573.28;5051587;28;20025;-71
2023/07/23 02:27:44;;;;;;;7.90;5.20;;;;;;;18.06;63.71;100577.41;5067553;28;20044;-71
2023/07/23 02:30:10;;;;;;;7.22;5.00;;;;;;;17.97;64.37;100568.06;5071333;28;20375;-71
2023/07/23 02:32:36;;;;;;;7.28;5.43;;;;;;;17.98;63.85;100566.91;5068991;28;20391;-70
2023/07/23 02:35:01;;;;;;;9.25;5.40;;;;;;;17.99;63.67;100565.75;5072967;28;20056;-71
2023/07/23 02:37:26;;;;;;;8.40;5.50;;;;;;;17.98;63.49;100557.66;5072978;28;20498;-71
2023/07/23 02:39:53;;;;;;;8.02;4.72;;;;;;;17.97;63.34;100556.00;5070717;28;20102;-71
2023/07/23 02:42:18;;;;;;;7.80;4.78;;;;;;;18.01;63.36;100548.63;5067543;28;20024;-71
2023/07/23 02:44:44;;;;;;;9.38;5.05;;;;;;;18.00;63.14;100555.34;5051905;28;20569;-71
2023/07/23 02:47:09;;;;;;;5.55;4.63;;;;;;;18.00;63.11;100556.22;5058756;28;20487;-72
2023/07/23 02:49:34;;;;;;;16.98;5.05;;;;;;;18.06;62.29;100546.53;5070445;28;20032;-71
2023/07/23 02:52:01;;;;;;;7.88;5.03;;;;;;;18.02;62.63;100559.53;5066358;28;20082;-70
2023/07/23 02:54:26;;;;;;;7.85;4.70;;;;;;;18.00;62.13;100546.94;5052741;28;20051;-70
2023/07/23 02:56:51;;;;;;;6.60;4.65;;;;;;;18.00;62.27;100546.94;5052532;28;20461;-70
2023/07/23 02:59:17;;;;;;;8.20;5.20;;;;;;;18.02;61.72;100545.47;5051446;28;20044;-72
2023/07/23 03:01:42;;;;;;;7.22;4.60;;;;;;;18.01;61.63;100537.38;5069906;28;20059;-71
2023/07/23 03:04:07;;;;;;;6.43;4.75;;;;;;;18.02;61.77;100545.47;5072657;28;20472;-71
2023/07/23 03:06:33;;;;;;;8.13;5.30;;;;;;;18.01;61.97;100543.00;5053322;28;20028;-71
2023/07/23 03:08:58;;;;;;;6.45;4.70;;;;;;;18.01;61.44;100540.19;5063400;28;20491;-71
2023/07/23 03:11:23;;;;;;;6.57;4.85;;;;;;;18.01;61.41;100531.75;5072617;28;20073;-71
2023/07/23 03:13:49;;;;;;;7.80;5.05;;;;;;;17.99;61.20;100534.03;5071247;28;20428;-71
2023/07/23 03:16:14;;;;;;;6.28;4.65;;;;;;;18.04;61.60;100531.97;5071486;28;20407;-71
2023/07/23 03:18:39;;;;;;;6.25;4.32;;;;;;;17.91;61.33;100532.78;5060416;28;20111;-71
2023/07/23 03:21:05;;;;;;;6.03;4.82;;;;;;;17.96;61.18;100529.03;5071356;28;20468;-71
2023/07/23 03:23:30;;;;;;;6.20;4.85;;;;;;;17.96;61.09;100526.22;5070696;28;20111;-71
2023/07/23 03:25:55;;;;;;;5.57;4.47;;;;;;;17.94;60.37;100528.53;5070429;28;20534;-71
2023/07/23 03:28:21;;;;;;;9.23;4.72;;;;;;;17.90;60.98;100528.31;5063761;28;20036;-71
2023/07/23 03:30:46;;;;;;;7.53;4.65;;;;;;;17.92;60.97;100531.66;5051888;28;20075;-71
2023/07/23 03:33:11;;;;;;;6.53;4.40;;;;;;;17.91;61.07;100521.53;5051085;28;20082;-71
2023/07/23 03:35:37;;;;;;;9.55;4.50;;;;;;;17.95;61.26;100527.38;5051302;28;20481;-71
2023/07/23 03:38:02;;;;;;;12.40;4.97;;;;;;;17.95;61.03;100527.38;5051915;28;20550;-70
2023/07/23 03:40:27;;;;;;;7.38;4.18;;;;;;;17.99;60.97;100520.00;5066996;28;20558;-70
2023/07/23 03:42:52;;;;;;;6.22;4.55;;;;;;;17.98;60.20;100526.75;5070930;28;20046;-71
2023/07/23 03:45:18;;;;;;;5.63;4.20;;;;;;;17.97;60.55;100525.09;5071272;28;20032;-70
2023/07/23 03:47:43;;;;;;;5.90;4.30;;;;;;;17.93;60.23;100521.25;5054884;28;20432;-70
2023/07/23 03:50:09;;;;;;;5.57;4.22;;;;;;;17.97;60.51;100527.91;5049862;28;20024;-71
2023/07/23 03:52:34;;;;;;;6.53;4.07;;;;;;;17.98;60.44;100521.97;5052058;28;20057;-71
2023/07/23 03:54:59;;;;;;;7.15;4.13;;;;;;;17.96;60.23;100529.91;5062238;28;20039;-71
2023/07/23 03:57:25;;;;;;;5.07;3.85;;;;;;;17.91;60.12;100524.34;5069637;28;20020;-71
2023/07/23 03:59:51;;;;;;;5.35;4.15;;;;;;;17.97;60.09;100520.31;5052217;28;20033;-71
2023/07/23 04:02:16;;;;;;;6.80;4.25;;;;;;;17.95;59.79;100528.22;5054704;28;20028;-71
2023/07/23 04:04:42;;;;;;;5.00;3.80;;;;;;;18.00;59.88;100527.28;5053012;28;20029;-71
2023/07/23 04:07:08;;;;;;;7.22;4.10;;;;;;;17.98;59.47;100529.56;5059644;28;20501;-71
2023/07/23 04:09:34;;;;;;;8.35;4.15;;;;;;;17.98;59.44;100530.41;5050531;28;20074;-71
2023/07/23 04:12:00;;;;;;;5.65;3.97;;;;;;;18.00;59.46;100530.06;5051300;28;20100;-71
2023/07/23 04:14:26;;;;;;;7.18;4.18;;;;;;;17.97;59.71;100527.91;5066843;28;20097;-71
2023/07/23 04:16:53;;;;;;;5.55;3.83;;;;;;;17.95;59.33;100530.19;5069929;28;20076;-70
2023/07/23 04:19:19;;;;;;;6.55;4.15;;;;;;;17.97;59.30;100520.31;5071206;28;20033;-70
2023/07/23 04:21:44;;;;;;;7.47;4.22;;;;;;;18.01;59.38;100523.34;5070694;28;20020;-71
2023/07/23 04:24:09;;;;;;;5.32;3.90;;;;;;;18.02;59.23;100533.41;5059771;28;20502;-71
2023/07/23 04:26:35;;;;;;;8.48;3.97;;;;;;;18.01;59.07;100524.16;5070637;28;20041;-70
2023/07/23 04:29:01;;;;;;;6.72;4.32;;;;;;;18.06;59.23;100528.84;5071147;28;20041;-70
2023/07/23 04:31:26;;;;;;;7.28;4.30;;;;;;;18.03;59.01;100521.03;5065406;28;20040;-71
2023/07/23 04:33:52;;;;;;;6.50;3.90;;;;;;;18.05;58.76;100530.00;5071070;28;20048;-71
2023/07/23 04:36:18;;;;;;;7.30;4.43;;;;;;;18.01;58.98;100526.97;5070993;28;20467;-70
2023/07/23 04:38:44;;;;;;;6.85;4.22;;;;;;;18.05;58.82;100528.03;5067635;28;20032;-70
2023/07/23 04:41:09;;;;;;;6.18;4.05;;;;;;;18.02;58.85;100528.63;5051788;28;20041;-70
2023/07/23 04:43:36;;;;;;;4.93;3.80;;;;;;;18.02;58.73;100525.81;5051209;28;20029;-71
2023/07/23 04:46:04;;;;;;;9.07;3.92;;;;;;;18.01;58.81;100526.16;5050121;28;20082;-71
2023/07/23 04:48:29;;;;;;;6.13;4.10;;;;;;;18.09;58.67;100525.41;5056413;28;20115;-71
2023/07/23 04:50:56;;;;;;;8.50;4.07;;;;;;;18.09;58.12;100526.25;5070031;28;20198;-71
2023/07/23 04:53:23;;;;;;;7.60;4.00;;;;;;;18.05;58.33;100522.41;5069142;28;20040;-70
2023/07/23 04:55:53;;;;;;;5.85;4.07;;;;;;;18.06;58.49;100529.69;5051735;28;20024;-70
2023/07/23 04:58:20;;;;;;;4.88;3.92;;;;;;;18.08;58.24;100529.38;5050235;28;20241;-71
2023/07/23 05:00:46;;;;;;;7.25;3.97;;;;;;;18.09;58.55;100522.63;5059641;28;20024;-71
2023/07/23 05:03:11;;;;;;;5.43;3.80;;;;;;;18.09;59.02;100523.44;5050771;28;20040;-71
2023/07/23 05:05:39;;;;;;;7.22;3.92;;;;;;;18.09;58.92;100523.44;5069226;28;20198;-71
2023/07/23 05:08:04;;;;;;;9.15;4.40;;;;;;;18.07;59.38;100524.88;5051087;28;20035;-71
2023/07/23 05:10:30;;;;;;;5.72;3.70;;;;;;;18.08;59.36;100524.59;5050840;28;20037;-71
2023/07/23 05:12:55;;;;;;;7.20;3.45;;;;;;;18.11;59.95;100521.13;5050332;28;20406;-71
2023/07/23 05:15:20;;;;;;;5.95;4.30;;;;;;;18.04;59.84;100519.91;5050741;28;20362;-71
2023/07/23 05:17:46;;;;;;;6.97;4.20;;;;;;;18.06;59.78;100534.47;5067310;28;20052;-71
2023/07/23 05:20:11;;;;;;;5.57;4.45;;;;;;;18.09;59.69;100531.88;5055193;28;20033;-71
2023/07/23 05:22:38;;;;;;;6.55;3.88;;;;;;;18.10;59.84;100529.88;5067881;28;20040;-71
2023/07/23 05:25:04;;;;;;;6.90;4.32;;;;;;;18.05;59.87;100532.81;5064309;28;20025;-71
2023/07/23 05:27:30;;;;;;;6.03;4.18;;;;;;;18.03;60.23;100524.69;5055067;28;20033;-71
2023/07/23 05:29:55;;;;;;;5.38;3.67;;;;;;;18.05;60.67;100524.38;5068143;28;20119;-71
2023/07/23 05:32:21;;;;;;;8.60;4.07;;;;;;;18.05;60.21;100521.56;5050909;28;20037;-71
2023/07/23 05:34:46;;;;;;;7.70;4.10;;;;;;;17.99;60.89;100523.63;5052769;28;20029;-71
2023/07/23 05:37:11;;;;;;;6.35;3.78;;;;;;;18.06;61.11;100526.88;5060406;28;20480;-67
2023/07/23 05:39:37;;;;;;;7.60;4.28;;;;;;;18.08;61.10;100515.34;5066601;28;20032;-71
2023/07/23 05:42:02;;;;;;;5.63;4.13;;;;;;;18.00;61.30;100516.03;5062680;28;20029;-72
2023/07/23 05:44:28;;;;;;;7.72;3.65;;;;;;;18.00;61.01;100522.50;5054124;28;20029;-71
2023/07/23 05:46:53;;;;;;;4.65;3.75;;;;;;;17.96;61.47;100520.63;5061307;28;20112;-71
2023/07/23 05:49:18;;;;;;;6.75;4.07;;;;;;;17.98;61.27;100523.97;5052884;28;20029;-71
2023/07/23 05:51:44;;;;;;;9.48;3.90;;;;;;;17.96;60.98;100521.47;5054172;28;20067;-71
2023/07/23 05:54:09;;;;;;;6.93;4.05;;;;;;;17.95;61.58;100518.97;5055124;28;20393;-71
2023/07/23 05:56:35;;;;;;;9.07;3.90;;;;;;;17.95;61.55;100524.56;5057597;28;20030;-71
2023/07/23 05:59:00;;;;;;;5.75;4.00;;;;;;;17.96;61.50;100515.84;5067232;28;20803;-71
2023/07/23 06:01:26;;;;;;;8.55;4.00;;;;;;;18.02;60.26;100511.78;5065143;28;20526;-71
2023/07/23 06:03:51;;;;;;;4.22;3.63;;;;;;;17.95;60.98;100510.53;5072615;28;20144;-71
2023/07/23 06:06:16;;;;;;;6.03;3.88;;;;;;;17.93;61.26;100512.84;5072598;28;20046;-71
2023/07/23 06:08:42;;;;;;;7.05;4.07;;;;;;;17.86;61.37;100519.69;5072624;28;20052;-71
2023/07/23 06:11:07;;;;;;;4.63;3.78;;;;;;;17.95;61.75;100516.97;5058173;28;20057;-71
2023/07/23 06:13:32;;;;;;;5.43;4.32;;;;;;;17.91;62.10;100522.38;5054526;28;20116;-71
2023/07/23 06:15:57;;;;;;;4.28;3.30;;;;;;;17.90;62.00;100529.16;5057269;28;20044;-72
2023/07/23 06:18:23;;;;;;;4.78;4.13;;;;;;;17.89;62.09;100527.50;5072928;28;20071;-71
2023/07/23 06:20:48;;;;;;;5.82;4.10;;;;;;;17.86;62.87;100535.69;5071799;28;20033;-71
2023/07/23 06:23:14;;;;;;;4.95;3.92;;;;;;;17.90;62.71;100526.34;5064691;28;20380;-71
2023/07/23 06:25:39;;;;;;;5.38;4.00;;;;;;;17.88;63.34;100524.97;5069957;28;20033;-71
2023/07/23 06:28:05;;;;;;;6.07;3.88;;;;;;;17.88;63.20;100523.03;5068642;28;20112;-71
2023/07/23 06:30:31;;;;;;;5.97;4.20;;;;;;;17.77;63.54;100535.59;5063297;28;20032;-71
2023/07/23 06:32:56;;;;;;;6.18;4.22;;;;;;;17.76;63.45;100531.09;5070109;28;20032;-71
2023/07/23 06:35:22;;;;;;;5.13;3.92;;;;;;;17.82;63.54;100532.66;5078373;28;20031;-71
2023/07/23 06:37:47;;;;;;;4.72;4.20;;;;;;;17.85;63.79;100534.03;5072215;28;20028;-71
2023/07/23 06:40:12;;;;;;;5.82;4.10;;;;;;;17.82;64.40;100534.66;5072388;28;20028;-71
2023/07/23 06:42:38;;;;;;;5.65;3.80;;;;;;;17.84;64.01;100546.38;5072941;28;20032;-71
2023/07/23 06:45:03;;;;;;;5.28;3.70;;;;;;;17.83;63.82;100537.13;5063749;28;20059;-71
2023/07/23 06:47:29;;;;;;;5.07;3.88;;;;;;;17.86;63.79;100552.53;5070994;28;20031;-72
2023/07/23 06:49:54;;;;;;;6.70;3.78;;;;;;;17.87;64.31;100555.03;5056568;28;20083;-72
2023/07/23 06:52:19;;;;;;;8.23;4.40;;;;;;;17.83;64.87;100568.00;5069822;28;20045;-72
2023/07/23 06:54:44;;;;;;;8.77;4.60;;;;;;;17.81;65.02;100556.28;5056453;28;20452;-72
2023/07/23 06:57:10;;;;;;;5.88;4.35;;;;;;;17.76;65.47;100556.34;5052863;28;20035;-73
2023/07/23 06:59:35;;;;;;;8.13;4.57;;;;;;;17.78;66.24;100556.88;5056874;28;20046;-74
2023/07/23 07:02:01;;;;;;;8.10;5.15;;;;;;;17.82;66.14;100560.75;5066506;28;20111;-71
2023/07/23 07:04:26;;;;;;;9.13;5.32;;;;;;;17.79;66.36;100558.53;5054526;28;20468;-71
2023/07/23 07:06:51;;;;;;;7.70;5.32;;;;;;;17.72;66.71;100560.88;5050606;28;20392;-71
2023/07/23 07:09:17;;;;;;;7.85;4.95;;;;;;;17.63;67.25;100566.38;5066107;28;20024;-71
2023/07/23 07:11:43;;;;;;;7.28;4.85;;;;;;;17.67;67.79;100572.22;5063913;28;20025;-69
2023/07/23 07:14:08;;;;;;;6.68;4.88;;;;;;;17.61;67.82;100554.66;5065368;28;20025;-75
2023/07/23 07:16:34;;;;;;;5.28;4.70;;;;;;;17.59;68.32;100562.53;5067287;28;20048;-72
2023/07/23 07:18:59;;;;;;;6.97;4.88;;;;;;;17.57;68.33;100564.00;5051832;28;20044;-72
2023/07/23 07:21:24;;;;;;;8.10;5.07;;;;;;;17.62;68.94;100555.47;5054537;28;20507;-70
2023/07/23 07:23:49;;;;;;;7.85;5.00;;;;;;;17.53;69.52;100552.53;5071752;28;20515;-67
2023/07/23 07:26:15;;;;;;;6.10;4.82;;;;;;;17.55;70.19;100555.03;5070941;28;20040;-68
2023/07/23 07:28:40;;;;;;;6.53;5.10;;;;;;;17.59;69.55;100554.09;5066900;28;20393;-70
2023/07/23 07:31:06;;;;;;;6.60;4.78;;;;;;;17.54;69.29;100558.97;5064096;28;20086;-70
2023/07/23 07:33:31;;;;;;;7.15;5.03;;;;;;;17.53;69.51;100555.34;5057643;28;20045;-72
2023/07/23 07:35:58;;;;;;;7.95;5.05;;;;;;;17.50;69.12;100557.94;5051914;28;20113;-72
2023/07/23 07:38:25;;;;;;;7.28;5.15;;;;;;;17.46;69.85;100560.50;5051860;28;20048;-70
2023/07/23 07:40:51;;;;;;;8.10;5.28;;;;;;;17.50;69.45;100555.97;5051108;28;20043;-70
2023/07/23 07:43:17;;;;;;;7.32;5.47;;;;;;;17.49;69.47;100556.25;5049290;28;20029;-71
2023/07/23 07:45:49;;;;;;;7.28;5.00;;;;;;;17.54;69.20;100562.63;5066398;28;20026;-71
2023/07/23 07:48:15;;;;;;;;;;;;;;;17.66;67.36;100554.53;5049559;28;20035;-71
2023/07/23 07:50:40;;;;;;;7.57;5.45;;;;;;;17.54;69.74;100556.19;5055555;28;19916;-72
2023/07/23 07:53:05;;;;;;;7.50;5.50;;;;;;;17.55;70.11;100558.66;5066842;28;20422;-68
2023/07/23 07:55:38;;;;;;;8.60;5.80;;;;;;;17.58;70.29;100563.66;5058981;28;20060;-68
2023/07/23 07:58:03;;;;;;;;;;;;;;;17.75;68.03;100562.28;5063183;28;20021;-71
2023/07/23 08:00:29;;;;;;;9.48;6.22;;;;;;;17.61;70.09;100556.63;5053830;28;19926;-69
2023/07/23 08:02:54;;;;;;;10.52;6.90;;;;;;;17.53;70.61;100551.72;5054873;28;20640;-70
2023/07/23 08:05:19;;;;;;;9.48;5.95;;;;;;;17.53;70.49;100560.97;5060737;28;20460;-69
2023/07/23 08:07:46;;;;;;;8.85;6.15;;;;;;;17.51;70.91;100546.38;5058868;28;20028;-70
2023/07/23 08:10:12;;;;;;;9.02;6.10;;;;;;;17.49;71.76;100553.44;5067135;28;20529;-68
2023/07/23 08:12:38;;;;;;;8.00;5.70;;;;;;;17.54;72.07;100557.00;5053673;28;20040;-70
2023/07/23 08:15:04;;;;;;;7.90;5.82;;;;;;;17.53;71.92;100562.94;5057706;28;20070;-70
2023/07/23 08:17:30;;;;;;;7.82;5.63;;;;;;;17.51;70.89;100551.16;5063576;28;20076;-70
2023/07/23 08:19:55;;;;;;;7.57;5.57;;;;;;;17.49;71.77;100553.44;5066215;28;20060;-68
2023/07/23 08:22:21;;;;;;;6.40;5.57;;;;;;;17.52;72.02;100555.63;5044756;28;20032;-72
2023/07/23 08:24:46;;;;;;;9.75;5.85;;;;;;;17.50;72.33;100549.50;5048082;28;20400;-70
2023/07/23 08:27:17;;;;;;;5.32;4.72;;;;;;;17.47;72.07;100564.16;5051005;28;20063;-70
2023/07/23 08:29:45;;;;;;;5.15;4.65;;;;;;;17.34;73.18;100549.78;5056838;28;20032;-70
2023/07/23 08:32:13;;;;;;;6.93;4.70;;;;;;;17.37;73.05;100546.34;5065100;28;20037;-69
2023/07/23 08:34:39;;;;;;;7.95;4.93;;;;;;;17.43;72.63;100556.34;5065238;28;20029;-71
2023/07/23 08:37:07;;;;;;;4.85;4.30;;;;;;;17.42;72.89;100554.69;5053237;28;20047;-70
2023/07/23 08:39:32;;;;;;;4.88;3.92;;;;;;;17.47;73.41;100548.16;5060153;28;20538;-71
2023/07/23 08:42:32;;;;;;;6.05;4.38;;;;;;;17.48;72.96;100560.19;5066014;28;20028;-71
2023/07/23 08:45:32;;;;;;;4.20;3.75;;;;;;;17.47;72.63;100555.72;5053851;28;20025;-69
2023/07/23 08:48:17;;;;;;;5.13;3.70;;;;;;;17.48;73.11;100557.41;5056664;28;20507;-69
2023/07/23 08:50:47;;;;;;;4.60;3.60;;;;;;;17.49;74.02;100557.09;5057917;28;20043;-71
2023/07/23 08:53:14;;;;;;;5.03;3.05;;;;;;;17.56;73.00;100553.88;5062073;28;20392;-70
2023/07/23 08:55:43;;;;;;;4.35;3.50;;;;;;;17.59;73.40;100553.28;5053760;28;20028;-70
2023/07/23 08:58:13;;;;;;;4.40;3.30;;;;;;;17.59;73.57;100554.09;5058539;28;20032;-70
2023/07/23 09:00:39;;;;;;;5.75;3.63;;;;;;;17.60;73.70;100558.56;5048330;28;20037;-70
2023/07/23 09:03:07;;;;;;;3.80;3.50;;;;;;;17.58;74.41;100554.41;5061382;28;20377;-70
2023/07/23 09:05:33;;;;;;;3.85;2.90;;;;;;;17.66;74.35;100560.16;5061532;28;20497;-71
2023/07/23 09:07:59;;;;;;;4.75;3.20;;;;;;;17.70;74.10;100549.16;5050475;28;20515;-70
2023/07/23 09:10:24;;;;;;;3.95;3.10;;;;;;;17.72;74.32;100557.25;5054302;28;20790;-71
2023/07/23 09:12:49;;;;;;;4.18;3.03;;;;;;;17.71;74.69;100552.78;5053621;28;20058;-70
2023/07/23 09:15:15;;;;;;;5.53;3.33;;;;;;;17.67;75.02;100566.59;5064870;28;20119;-69
2023/07/23 09:17:41;;;;;;;4.40;3.20;;;;;;;17.72;74.54;100558.06;5057076;28;20782;-70
2023/07/23 09:20:10;;;;;;;6.22;2.90;;;;;;;17.69;75.06;100567.13;5064715;28;20088;-69
2023/07/23 09:22:35;;;;;;;3.03;2.72;;;;;;;17.70;75.41;100563.19;5060158;28;20081;-69
2023/07/23 09:25:01;;;;;;;3.72;2.75;;;;;;;17.72;74.81;100555.28;5069194;28;20051;-68
2023/07/23 09:27:41;;;;;;;3.92;2.65;;;;;;;17.73;75.33;100564.56;5062076;28;20529;-68
2023/07/23 09:30:07;;;;;;;3.47;2.95;;;;;;;17.67;75.89;100563.78;5056264;28;20545;-68
2023/07/23 09:32:33;;;;;;;2.83;2.50;;;;;;;17.73;75.88;100565.38;5054862;28;20024;-68
2023/07/23 09:34:59;;;;;;;3.70;2.80;;;;;;;17.65;76.29;100566.09;5053714;28;20024;-67
2023/07/23 09:37:29;;;;;;;3.75;2.97;;;;;;;17.71;76.02;100567.66;5051408;28;20029;-70
2023/07/23 09:39:57;;;;;;;4.30;2.58;;;;;;;17.71;75.81;100573.25;5061280;28;20033;-67
2023/07/23 09:42:23;;;;;;;2.90;2.55;;;;;;;17.74;76.17;100567.03;5071596;28;20043;-69
2023/07/23 09:44:49;;;;;;;3.50;3.08;;;;;;;17.75;76.20;100570.72;5060117;28;20055;-69
2023/07/23 09:47:15;;;;;;;4.07;2.90;;;;;;;17.77;76.53;100563.66;5070257;28;20078;-70
2023/07/23 09:49:42;;;;;;;3.38;3.08;;;;;;;17.75;76.73;100563.13;5064584;28;20029;-68
2023/07/23 09:52:08;;;;;;;4.10;3.00;;;;;;;17.73;76.69;100565.38;5070696;28;20029;-69
2023/07/23 09:54:37;;;;;;;3.83;2.83;;;;;;;17.75;76.53;100571.53;5056205;28;20028;-70
2023/07/23 09:57:03;;;;;;;3.30;3.00;;;;;;;17.75;76.09;100574.34;5070397;28;20039;-71
2023/07/23 09:59:30;;;;;;;3.22;2.92;;;;;;;17.67;76.94;100578.66;5090023;28;20051;-70
2023/07/23 10:01:56;;;;;;;3.42;3.00;;;;;;;17.67;76.80;100583.44;5087293;28;20655;-74
2023/07/23 10:04:22;;;;;;;5.13;3.05;;;;;;;17.62;77.46;100575.13;5055449;28;20036;-72
2023/07/23 10:06:48;;;;;;;3.65;2.72;;;;;;;17.60;77.30;100571.78;5050865;28;20068;-73
2023/07/23 10:09:15;;;;;;;3.45;2.70;;;;;;;17.60;77.59;100580.19;5066236;28;20066;-73
2023/07/23 10:11:41;;;;;;;3.95;2.85;;;;;;;17.62;77.36;100577.94;5071906;28;20025;-70
2023/07/23 10:14:06;;;;;;;2.58;2.30;;;;;;;17.64;76.48;100578.44;5058441;28;20039;-71
2023/07/23 10:16:44;;;;;;;3.08;2.78;;;;;;;17.60;77.23;100588.59;5078495;28;20109;-70
2023/07/23 10:19:10;;;;;;;3.03;2.72;;;;;;;17.56;77.84;100584.75;5067661;28;20047;-72
2023/07/23 10:21:36;;;;;;;2.78;2.55;;;;;;;17.59;77.69;100595.38;5068530;28;20096;-72
2023/07/23 10:24:03;;;;;;;3.17;2.88;;;;;;;17.55;77.85;100591.50;5065337;28;20143;-71
2023/07/23 10:26:38;;;;;;;2.88;2.55;;;;;;;17.58;77.75;100588.09;5063389;28;20063;-72
2023/07/23 10:29:11;;;;;;;3.15;2.67;;;;;;;17.57;77.89;100587.28;5057037;28;20115;-74
2023/07/23 10:31:41;;;;;;;4.63;2.90;;;;;;;17.60;77.71;100599.84;5068755;28;20056;-74
2023/07/23 10:34:38;;;;;;;2.70;2.38;;;;;;;17.61;76.11;100584.69;5066430;28;20036;-74
2023/07/23 10:37:17;;;;;;;3.20;2.60;;;;;;;17.56;77.38;100590.38;5062138;28;20555;-73
2023/07/23 10:39:45;;;;;;;3.10;2.80;;;;;;;17.49;78.40;100589.91;5065976;28;20040;-71
2023/07/23 10:42:37;;;;;;;3.42;2.72;;;;;;;17.59;77.35;100587.78;5066821;28;20021;-72
2023/07/23 10:45:35;;;;;;;2.72;2.53;;;;;;;17.64;77.32;100587.72;5063006;28;20040;-67
2023/07/23 10:48:01;;;;;;;4.20;2.90;;;;;;;17.63;77.97;100599.22;5046475;28;20491;-68
2023/07/23 10:50:32;;;;;;;3.22;2.88;;;;;;;17.65;78.10;100586.56;5066493;28;20119;-71
2023/07/23 10:53:03;;;;;;;3.55;3.00;;;;;;;17.68;77.97;100590.72;5056044;28;20385;-68
2023/07/23 10:55:46;;;;;;;3.00;2.70;;;;;;;17.69;78.03;100583.16;5064623;28;20033;-69
2023/07/23 10:58:19;;;;;;;3.25;2.90;;;;;;;17.67;78.13;100581.47;5057477;28;20028;-70
2023/07/23 11:00:47;;;;;;;4.70;2.55;;;;;;;17.68;78.66;100585.09;5068495;28;20036;-69
2023/07/23 11:03:17;;;;;;;4.05;3.20;;;;;;;17.71;78.41;100584.50;5069724;28;20098;-71
2023/07/23 11:05:43;;;;;;;4.38;3.20;;;;;;;17.69;78.45;100581.19;5067133;28;20032;-67
2023/07/23 11:08:19;;;;;;;4.45;3.40;;;;;;;17.74;78.26;100588.66;5070634;28;20028;-69
2023/07/23 11:10:59;;;;;;;3.17;2.88;;;;;;;17.79;77.61;100586.63;5065095;28;20237;-71
2023/07/23 11:13:31;;;;;;;3.95;3.50;;;;;;;17.78;78.90;100589.75;5057304;28;20028;-68
2023/07/23 11:15:56;;;;;;;4.20;3.67;;;;;;;17.82;78.53;100576.75;5059327;28;20084;-74
2023/07/23 11:18:23;;;;;;;3.80;3.50;;;;;;;17.88;78.43;100581.97;5061133;28;20055;-70
2023/07/23 11:20:51;;;;;;;4.13;3.63;;;;;;;17.93;78.03;100583.03;5060104;28;20048;-73
2023/07/23 11:23:19;;;;;;;4.63;3.33;;;;;;;17.96;79.04;100585.19;5074247;28;20400;-72
2023/07/23 11:25:45;;;;;;;4.32;3.80;;;;;;;17.99;78.69;100578.97;5061401;28;20457;-71